Map

Track Data

SID SEASON NUMBER BASIN SUBBASIN NAME ISO_TIME NATURE LAT LON WMO_WIND WMO_PRES WMO_AGENCY TRACK_TYPE DIST2LAND LANDFALL IFLAG USA_AGENCY USA_ATCF_ID USA_LAT USA_LON USA_RECORD USA_STATUS USA_WIND USA_PRES USA_SSHS USA_R34_NE USA_R34_SE USA_R34_SW USA_R34_NW USA_R50_NE USA_R50_SE USA_R50_SW USA_R50_NW USA_R64_NE USA_R64_SE USA_R64_SW USA_R64_NW USA_POCI USA_ROCI USA_RMW USA_EYE TOKYO_LAT TOKYO_LON TOKYO_GRADE TOKYO_WIND TOKYO_PRES TOKYO_R50_DIR TOKYO_R50_LONG TOKYO_R50_SHORT TOKYO_R30_DIR TOKYO_R30_LONG TOKYO_R30_SHORT TOKYO_LAND CMA_LAT CMA_LON CMA_CAT CMA_WIND CMA_PRES HKO_LAT HKO_LON HKO_CAT HKO_WIND HKO_PRES NEWDELHI_LAT NEWDELHI_LON NEWDELHI_GRADE NEWDELHI_WIND NEWDELHI_PRES NEWDELHI_CI NEWDELHI_DP NEWDELHI_POCI REUNION_LAT REUNION_LON REUNION_TYPE REUNION_WIND REUNION_PRES REUNION_TNUM REUNION_CI REUNION_RMW REUNION_R34_NE REUNION_R34_SE REUNION_R34_SW REUNION_R34_NW REUNION_R50_NE REUNION_R50_SE REUNION_R50_SW REUNION_R50_NW REUNION_R64_NE REUNION_R64_SE REUNION_R64_SW REUNION_R64_NW BOM_LAT BOM_LON BOM_TYPE BOM_WIND BOM_PRES BOM_TNUM BOM_CI BOM_RMW BOM_R34_NE BOM_R34_SE BOM_R34_SW BOM_R34_NW BOM_R50_NE BOM_R50_SE BOM_R50_SW BOM_R50_NW BOM_R64_NE BOM_R64_SE BOM_R64_SW BOM_R64_NW BOM_ROCI BOM_POCI BOM_EYE BOM_POS_METHOD BOM_PRES_METHOD NADI_LAT NADI_LON NADI_CAT NADI_WIND NADI_PRES WELLINGTON_LAT WELLINGTON_LON WELLINGTON_WIND WELLINGTON_PRES DS824_LAT DS824_LON DS824_STAGE DS824_WIND DS824_PRES TD9636_LAT TD9636_LON TD9636_STAGE TD9636_WIND TD9636_PRES TD9635_LAT TD9635_LON TD9635_WIND TD9635_PRES TD9635_ROCI NEUMANN_LAT NEUMANN_LON NEUMANN_CLASS NEUMANN_WIND NEUMANN_PRES MLC_LAT MLC_LON MLC_CLASS MLC_WIND MLC_PRES USA_GUST BOM_GUST BOM_GUST_PER REUNION_GUST REUNION_GUST_PER USA_SEAHGT USA_SEARAD_NE USA_SEARAD_SE USA_SEARAD_SW USA_SEARAD_NW STORM_SPEED STORM_DIR
1995214N15249 1995 39 EP MM ERICK 1995-08-01 18:00:00 TS 15.4000 -110.800 25 1008 hurdat_epa main 755 755 O_____________ hurdat_epa EP061995 15.4000 -110.800 TD 25 1008 -1 14 248
1995214N15249 1995 39 EP MM ERICK 1995-08-01 21:00:00 TS 15.1405 -111.453 main 835 835 P_____________ EP061995 15.1405 -111.453 TD 25 1008 -1 13 247
1995214N15249 1995 39 EP MM ERICK 1995-08-02 00:00:00 TS 14.9000 -112.000 25 1008 hurdat_epa main 891 891 O_____________ hurdat_epa EP061995 14.9000 -112.000 TD 25 1008 -1 10 243
1995214N15249 1995 39 EP MM ERICK 1995-08-02 03:00:00 TS 14.6923 -112.367 main 938 938 P_____________ EP061995 14.6923 -112.367 TD 25 1008 -1 7 235
1995214N15249 1995 39 EP MM ERICK 1995-08-02 06:00:00 TS 14.5000 -112.600 25 1008 hurdat_epa main 969 969 O_____________ hurdat_epa EP061995 14.5000 -112.600 TD 25 1008 -1 6 224
1995214N15249 1995 39 EP MM ERICK 1995-08-02 09:00:00 TS 14.2924 -112.772 main 1000 1000 P_____________ EP061995 14.2924 -112.772 TD 25 1007 -1 5 216
1995214N15249 1995 39 EP MM ERICK 1995-08-02 12:00:00 TS 14.1000 -112.900 25 1007 hurdat_epa main 1022 1022 O_____________ hurdat_epa EP061995 14.1000 -112.900 TD 25 1007 -1 5 214
1995214N15249 1995 39 EP MM ERICK 1995-08-02 15:00:00 TS 13.9200 -113.035 main 1045 1045 P_____________ EP061995 13.9200 -113.035 TD 25 1006 -1 4 224
1995214N15249 1995 39 EP MM ERICK 1995-08-02 18:00:00 TS 13.8000 -113.200 25 1006 hurdat_epa main 1069 1069 O_____________ hurdat_epa EP061995 13.8000 -113.200 TD 25 1006 -1 4 247
1995214N15249 1995 39 EP MM ERICK 1995-08-02 21:00:00 TS 13.7550 -113.443 main 1079 1079 P_____________ EP061995 13.7550 -113.443 TD 27 1006 -1 5 270
1995214N15249 1995 39 EP MM ERICK 1995-08-03 00:00:00 TS 13.8000 -113.700 30 1006 hurdat_epa main 1090 1083 O_____________ hurdat_epa EP061995 13.8000 -113.700 TD 30 1006 -1 5 289
1995214N15249 1995 39 EP MM ERICK 1995-08-03 03:00:00 TS 13.9125 -113.908 main 1087 1075 P_____________ EP061995 13.9125 -113.908 TD 30 1005 -1 5 308
1995214N15249 1995 39 EP MM ERICK 1995-08-03 06:00:00 TS 14.1000 -114.100 30 1005 hurdat_epa main 1075 1058 O_____________ hurdat_epa EP061995 14.1000 -114.100 TD 30 1005 -1 6 318
1995214N15249 1995 39 EP MM ERICK 1995-08-03 09:00:00 TS 14.3199 -114.285 main 1063 1042 P_____________ EP061995 14.3199 -114.285 TD 30 1005 -1 6 322
1995214N15249 1995 39 EP MM ERICK 1995-08-03 12:00:00 TS 14.6000 -114.500 30 1005 hurdat_epa main 1042 1022 O_____________ hurdat_epa EP061995 14.6000 -114.500 TD 30 1005 -1 8 323
1995214N15249 1995 39 EP MM ERICK 1995-08-03 15:00:00 TS 14.9424 -114.770 main 1027 1004 P_____________ EP061995 14.9424 -114.770 TD 30 1005 -1 9 320
1995214N15249 1995 39 EP MM ERICK 1995-08-03 18:00:00 TS 15.3000 -115.100 30 1005 hurdat_epa main 1004 993 O_____________ hurdat_epa EP061995 15.3000 -115.100 TD 30 1005 -1 10 315
1995214N15249 1995 39 EP MM ERICK 1995-08-03 21:00:00 TS 15.6300 -115.477 main 999 990 P_____________ EP061995 15.6300 -115.477 TD 30 1005 -1 10 308
1995214N15249 1995 39 EP MM ERICK 1995-08-04 00:00:00 TS 15.9000 -115.900 30 1005 hurdat_epa main 997 995 O_____________ hurdat_epa EP061995 15.9000 -115.900 TD 30 1005 -1 9 298
1995214N15249 1995 39 EP MM ERICK 1995-08-04 03:00:00 TS 16.0724 -116.343 main 1006 1006 P_____________ EP061995 16.0724 -116.343 TD 32 1004 -1 9 289
1995214N15249 1995 39 EP MM ERICK 1995-08-04 06:00:00 TS 16.2000 -116.800 35 1004 hurdat_epa main 1033 1033 O_____________ hurdat_epa EP061995 16.2000 -116.800 TS 35 1004 0 9 288
1995214N15249 1995 39 EP MM ERICK 1995-08-04 09:00:00 TS 16.3500 -117.258 main 1062 1054 P_____________ EP061995 16.3500 -117.258 TS 40 1002 0 9 289
1995214N15249 1995 39 EP MM ERICK 1995-08-04 12:00:00 TS 16.5000 -117.700 45 1000 hurdat_epa main 1077 1077 O_____________ hurdat_epa EP061995 16.5000 -117.700 TS 45 1000 0 9 290
1995214N15249 1995 39 EP MM ERICK 1995-08-04 15:00:00 TS 16.6424 -118.115 main 1099 1090 P_____________ EP061995 16.6424 -118.115 TS 47 998 0 8 291
1995214N15249 1995 39 EP MM ERICK 1995-08-04 18:00:00 TS 16.8000 -118.500 50 997 hurdat_epa main 1105 1102 O_____________ hurdat_epa EP061995 16.8000 -118.500 TS 50 997 0 8 296
1995214N15249 1995 39 EP MM ERICK 1995-08-04 21:00:00 TS 16.9924 -118.858 main 1113 1109 P_____________ EP061995 16.9924 -118.858 TS 52 995 0 8 301
1995214N15249 1995 39 EP MM ERICK 1995-08-05 00:00:00 TS 17.2000 -119.200 55 994 hurdat_epa main 1116 1114 O_____________ hurdat_epa EP061995 17.2000 -119.200 TS 55 994 0 8 300
1995214N15249 1995 39 EP MM ERICK 1995-08-05 03:00:00 TS 17.3925 -119.573 main 1127 1125 P_____________ EP061995 17.3925 -119.573 TS 55 994 0 8 301
1995214N15249 1995 39 EP MM ERICK 1995-08-05 06:00:00 TS 17.6000 -119.900 55 994 hurdat_epa main 1132 1131 O_____________ hurdat_epa EP061995 17.6000 -119.900 TS 55 994 0 7 311
1995214N15249 1995 39 EP MM ERICK 1995-08-05 09:00:00 TS 17.8424 -120.123 main 1131 1123 P_____________ EP061995 17.8424 -120.123 TS 52 995 0 6 323
1995214N15249 1995 39 EP MM ERICK 1995-08-05 12:00:00 TS 18.1000 -120.300 50 997 hurdat_epa main 1123 1115 O_____________ hurdat_epa EP061995 18.1000 -120.300 TS 50 997 0 6 325
1995214N15249 1995 39 EP MM ERICK 1995-08-05 15:00:00 TS 18.3650 -120.507 main 1116 1116 P_____________ EP061995 18.3650 -120.507 TS 47 998 0 6 323
1995214N15249 1995 39 EP MM ERICK 1995-08-05 18:00:00 TS 18.6000 -120.700 45 1000 hurdat_epa main 1118 1110 O_____________ hurdat_epa EP061995 18.6000 -120.700 TS 45 1000 0 5 320
1995214N15249 1995 39 EP MM ERICK 1995-08-05 21:00:00 TS 18.7650 -120.858 main 1120 1120 P_____________ EP061995 18.7650 -120.858 TS 42 1001 0 4 317
1995214N15249 1995 39 EP MM ERICK 1995-08-06 00:00:00 TS 18.9000 -121.000 40 1002 hurdat_epa main 1121 1121 O_____________ hurdat_epa EP061995 18.9000 -121.000 TS 40 1002 0 4 314
1995214N15249 1995 39 EP MM ERICK 1995-08-06 03:00:00 TS 19.0575 -121.172 main 1125 1125 P_____________ EP061995 19.0575 -121.172 TS 37 1003 0 4 317
1995214N15249 1995 39 EP MM ERICK 1995-08-06 06:00:00 TS 19.2000 -121.300 35 1004 hurdat_epa main 1127 1120 O_____________ hurdat_epa EP061995 19.2000 -121.300 TS 35 1004 0 3 329
1995214N15249 1995 39 EP MM ERICK 1995-08-06 09:00:00 TS 19.3075 -121.330 main 1120 1114 P_____________ EP061995 19.3075 -121.330 TS 32 1004 -1 2 8
1995214N15249 1995 39 EP MM ERICK 1995-08-06 12:00:00 TS 19.4000 -121.300 30 1004 hurdat_epa main 1114 1107 O_____________ hurdat_epa EP061995 19.4000 -121.300 TD 30 1004 -1 2 23
1995214N15249 1995 39 EP MM ERICK 1995-08-06 15:00:00 TS 19.4925 -121.250 main 1107 1093 P_____________ EP061995 19.4925 -121.250 TD 30 1004 -1 2 27
1995214N15249 1995 39 EP MM ERICK 1995-08-06 18:00:00 TS 19.6000 -121.200 30 1004 hurdat_epa main 1093 1086 O_____________ hurdat_epa EP061995 19.6000 -121.200 TD 30 1004 -1 2 11
1995214N15249 1995 39 EP MM ERICK 1995-08-06 21:00:00 TS 19.7350 -121.200 main 1086 1069 P_____________ EP061995 19.7350 -121.200 TD 30 1004 -1 3 0
1995214N15249 1995 39 EP MM ERICK 1995-08-07 00:00:00 TS 19.9000 -121.200 30 1004 hurdat_epa main 1069 1052 O_____________ hurdat_epa EP061995 19.9000 -121.200 TD 30 1004 -1 4 7
1995214N15249 1995 39 EP MM ERICK 1995-08-07 03:00:00 TS 20.1075 -121.158 main 1052 1028 P_____________ EP061995 20.1075 -121.158 TD 30 1004 -1 4 13
1995214N15249 1995 39 EP MM ERICK 1995-08-07 06:00:00 TS 20.3000 -121.100 30 1004 hurdat_epa main 1028 1020 O_____________ hurdat_epa EP061995 20.3000 -121.100 TD 30 1004 -1 3 17
1995214N15249 1995 39 EP MM ERICK 1995-08-07 09:00:00 TS 20.4225 -121.057 main 1020 1004 P_____________ EP061995 20.4225 -121.057 TD 27 1004 -1 2 27
1995214N15249 1995 39 EP MM ERICK 1995-08-07 12:00:00 TS 20.5000 -121.000 25 1004 hurdat_epa main 1004 989 O_____________ hurdat_epa EP061995 20.5000 -121.000 TD 25 1004 -1 2 47
1995214N15249 1995 39 EP MM ERICK 1995-08-07 15:00:00 TS 20.5575 -120.908 main 989 982 P_____________ EP061995 20.5575 -120.908 TD 25 1004 -1 2 61
1995214N15249 1995 39 EP MM ERICK 1995-08-07 18:00:00 TS 20.6000 -120.800 25 1005 hurdat_epa main 982 976 O_____________ hurdat_epa EP061995 20.6000 -120.800 TD 25 1005 -1 2 65
1995214N15249 1995 39 EP MM ERICK 1995-08-07 21:00:00 TS 20.6475 -120.698 main 976 960 P_____________ EP061995 20.6475 -120.698 TD 25 1005 -1 2 61
1995214N15249 1995 39 EP MM ERICK 1995-08-08 00:00:00 TS 20.7000 -120.600 25 1006 hurdat_epa main 960 O_____________ hurdat_epa EP061995 20.7000 -120.600 TD 25 1006 -1 2 60

About IBTrACS Database

This database is a web-friendly format of International Best Track Archive for Climate Stewardship (IBTrACS), a global best track data archive curated by NOAA dating back to 1842.

Updated: 2021-12-06